createdAt,value
2019-03-18T00:01:16.317Z,2.43
2019-03-18T00:03:47.812Z,2.33
2019-03-18T00:06:26.673Z,2.70
2019-03-18T00:08:55.353Z,2.47
2019-03-18T00:11:24.349Z,2.67
2019-03-18T00:13:53.024Z,2.10
2019-03-18T00:19:05.941Z,2.60
2019-03-18T00:21:35.657Z,2.80
2019-03-18T00:24:04.634Z,2.00
2019-03-18T00:26:45.146Z,2.40
2019-03-18T00:29:13.817Z,2.80
2019-03-18T00:31:42.456Z,2.50
2019-03-18T00:34:11.154Z,2.53
2019-03-18T00:36:50.040Z,2.80
2019-03-18T00:39:18.792Z,2.40
2019-03-18T00:41:47.457Z,2.90
2019-03-18T00:44:16.179Z,2.47
2019-03-18T00:46:54.099Z,2.80
2019-03-18T00:49:22.769Z,2.80
2019-03-18T00:51:54.585Z,3.03
2019-03-18T00:54:23.254Z,3.03
2019-03-18T00:57:01.098Z,3.00
2019-03-18T00:59:31.046Z,2.60
2019-03-18T01:01:59.819Z,2.67
2019-03-18T01:04:29.480Z,3.13
2019-03-18T01:07:07.698Z,2.80
2019-03-18T01:09:38.297Z,3.07
2019-03-18T01:12:08.278Z,3.47
2019-03-18T01:14:39.845Z,3.63
2019-03-18T01:17:29.726Z,4.17
2019-03-18T01:19:58.598Z,3.87
2019-03-18T01:22:28.049Z,3.20
2019-03-18T01:24:56.982Z,3.87
2019-03-18T01:27:35.852Z,3.90
2019-03-18T01:30:05.339Z,4.10
2019-03-18T01:32:34.018Z,3.43
2019-03-18T01:35:02.755Z,4.00
2019-03-18T01:37:41.526Z,3.70
2019-03-18T01:40:10.510Z,3.63
2019-03-18T01:42:39.243Z,3.97
2019-03-18T01:45:10.082Z,3.70
2019-03-18T01:47:47.858Z,4.50
2019-03-18T01:50:16.537Z,4.57
2019-03-18T01:52:46.353Z,3.90
2019-03-18T01:55:15.515Z,3.80
2019-03-18T02:00:27.473Z,3.87
2019-03-18T02:05:40.247Z,3.80
2019-03-18T02:08:09.313Z,4.23
2019-03-18T02:10:38.519Z,4.17
2019-03-18T02:15:53.606Z,3.93
2019-03-18T02:18:24.374Z,4.07
2019-03-18T02:20:53.260Z,3.70
2019-03-18T02:26:06.223Z,4.03
2019-03-18T02:28:37.274Z,3.30
2019-03-18T02:31:07.466Z,3.60
2019-03-18T02:33:47.327Z,3.40
2019-03-18T02:36:16.447Z,3.13
2019-03-18T02:38:46.973Z,3.10
2019-03-18T02:41:18.922Z,3.40
2019-03-18T02:43:56.967Z,3.03
2019-03-18T02:46:25.630Z,3.40
2019-03-18T02:48:54.297Z,3.20
2019-03-18T02:51:23.024Z,3.30
2019-03-18T02:54:01.127Z,3.47
2019-03-18T02:56:30.637Z,3.50
2019-03-18T02:58:59.662Z,3.17
2019-03-18T03:01:28.403Z,3.90
2019-03-18T03:04:06.385Z,3.43
2019-03-18T03:06:35.448Z,3.57
2019-03-18T03:09:06.478Z,3.50
2019-03-18T03:11:35.508Z,4.10
2019-03-18T03:14:15.605Z,3.53
2019-03-18T03:16:46.143Z,3.70
2019-03-18T03:19:16.970Z,4.10
2019-03-18T03:21:45.722Z,3.87
2019-03-18T03:24:23.578Z,3.97
2019-03-18T03:26:55.198Z,4.10
2019-03-18T03:29:23.858Z,4.40
2019-03-18T03:31:52.621Z,4.50
2019-03-18T03:34:33.485Z,4.20
2019-03-18T03:37:02.311Z,4.47
2019-03-18T03:39:30.987Z,4.27
2019-03-18T03:41:59.928Z,4.13
2019-03-18T03:44:39.992Z,4.90
2019-03-18T03:47:08.702Z,4.40
2019-03-18T03:49:37.552Z,4.00
2019-03-18T03:52:07.553Z,4.47
2019-03-18T03:54:45.806Z,4.37
2019-03-18T03:57:14.548Z,4.70
2019-03-18T03:59:43.220Z,4.00
2019-03-18T04:02:11.996Z,4.20
2019-03-18T04:04:49.771Z,4.40
2019-03-18T04:07:18.514Z,3.87
2019-03-18T04:09:47.473Z,4.37
2019-03-18T04:12:16.386Z,4.80
2019-03-18T04:14:54.394Z,4.30
2019-03-18T04:17:23.134Z,4.10
2019-03-18T04:19:51.923Z,4.10
2019-03-18T04:22:20.865Z,4.43
2019-03-18T04:25:01.115Z,3.80
2019-03-18T04:27:30.091Z,3.63
2019-03-18T04:29:59.038Z,4.03
2019-03-18T04:32:29.572Z,4.03
2019-03-18T04:35:10.691Z,4.50
2019-03-18T04:37:39.463Z,4.57
2019-03-18T04:40:08.418Z,4.37
2019-03-18T04:42:40.203Z,4.60
2019-03-18T04:45:18.580Z,4.20
2019-03-18T04:47:47.267Z,4.23
2019-03-18T04:50:15.943Z,4.53
2019-03-18T04:52:47.137Z,4.43
2019-03-18T04:55:30.848Z,4.10
2019-03-18T04:58:01.045Z,4.00
2019-03-18T05:00:29.808Z,4.33
2019-03-18T05:03:00.352Z,3.90
2019-03-18T05:05:41.350Z,4.07
2019-03-18T05:08:10.608Z,3.90
2019-03-18T05:10:39.369Z,4.67
2019-03-18T05:13:08.499Z,4.23
2019-03-18T05:15:51.986Z,3.83
2019-03-18T05:18:31.379Z,4.40
2019-03-18T05:21:03.376Z,4.30
2019-03-18T05:23:32.016Z,3.93
2019-03-18T05:26:10.137Z,4.67
2019-03-18T05:28:39.130Z,4.37
2019-03-18T05:31:09.029Z,4.30
2019-03-18T05:33:38.119Z,4.47
2019-03-18T05:36:18.588Z,3.73
2019-03-18T05:38:47.540Z,3.57
2019-03-18T05:41:16.353Z,3.87
2019-03-18T05:43:47.408Z,3.67
2019-03-18T05:46:16.336Z,3.80
2019-03-18T05:48:45.018Z,3.40
2019-03-18T05:51:17.738Z,3.40
2019-03-18T05:53:46.739Z,2.83
2019-03-18T05:56:26.128Z,3.40
2019-03-18T05:58:55.183Z,3.10
2019-03-18T06:01:24.217Z,2.80
2019-03-18T06:03:55.480Z,3.63
2019-03-18T06:06:33.406Z,3.10
2019-03-18T06:09:02.191Z,3.40
2019-03-18T06:11:30.899Z,3.53
2019-03-18T06:14:01.652Z,3.17
2019-03-18T06:16:39.537Z,3.00
2019-03-18T06:19:08.534Z,3.70
2019-03-18T06:21:40.351Z,3.37
2019-03-18T06:24:09.129Z,3.67
2019-03-18T06:26:47.437Z,3.10
2019-03-18T06:29:16.889Z,2.80
2019-03-18T06:31:48.795Z,1.90
2019-03-18T06:34:17.820Z,2.53
2019-03-18T06:36:56.049Z,1.77
2019-03-18T06:39:25.088Z,1.70
2019-03-18T06:41:54.060Z,1.40
2019-03-18T06:44:25.771Z,1.47
2019-03-18T06:47:04.039Z,2.07
2019-03-18T06:49:33.040Z,2.10
2019-03-18T06:52:02.060Z,2.20
2019-03-18T06:54:31.417Z,1.57
2019-03-18T06:57:09.781Z,1.97
2019-03-18T06:59:38.504Z,2.17
2019-03-18T07:02:09.148Z,2.23
2019-03-18T07:04:40.096Z,2.30
2019-03-18T07:09:44.451Z,2.20
2019-03-18T07:12:16.560Z,2.10
2019-03-18T07:14:46.696Z,2.10
2019-03-18T07:17:24.929Z,2.27
2019-03-18T07:19:54.228Z,2.30
2019-03-18T07:22:26.093Z,2.30
2019-03-18T07:24:55.092Z,2.70
2019-03-18T07:27:33.861Z,4.10
2019-03-18T07:30:02.871Z,3.10
2019-03-18T07:32:31.658Z,2.80
2019-03-18T07:35:00.919Z,3.40
2019-03-18T07:37:30.960Z,3.30
2019-03-18T07:40:00.913Z,2.97
2019-03-18T07:42:29.915Z,3.00
2019-03-18T07:44:58.731Z,2.83
2019-03-18T07:50:12.580Z,3.43
2019-03-18T07:52:41.615Z,3.60
2019-03-18T07:55:10.619Z,3.23
2019-03-18T07:57:48.828Z,3.23
2019-03-18T08:00:17.727Z,3.23
2019-03-18T08:02:47.057Z,3.50
2019-03-18T08:05:18.116Z,2.67
2019-03-18T08:10:31.499Z,3.17
2019-03-18T08:13:03.253Z,2.70
2019-03-18T08:15:32.252Z,3.20
2019-03-18T08:18:10.216Z,2.50
2019-03-18T08:20:38.901Z,2.97
2019-03-18T08:23:10.884Z,3.60
2019-03-18T08:25:40.116Z,3.50
2019-03-18T08:28:18.164Z,3.70
2019-03-18T08:31:36.451Z,3.83
2019-03-18T08:34:08.390Z,3.83
2019-03-18T08:36:47.584Z,4.93
2019-03-18T08:39:16.707Z,5.10
2019-03-18T08:41:46.480Z,5.00
2019-03-18T08:44:15.646Z,4.97
2019-03-18T08:46:56.240Z,5.57
2019-03-18T08:49:29.669Z,4.83
2019-03-18T08:52:00.984Z,4.73
2019-03-18T08:54:32.439Z,5.07
2019-03-18T08:57:10.941Z,5.33
2019-03-18T08:59:39.990Z,4.23
2019-03-18T09:02:09.128Z,4.97
2019-03-18T09:04:38.763Z,4.07
2019-03-18T09:07:17.088Z,3.80
2019-03-18T09:09:48.849Z,3.47
2019-03-18T09:12:18.193Z,3.33
2019-03-18T09:14:47.219Z,3.50
2019-03-18T09:17:25.089Z,3.53
2019-03-18T09:19:53.946Z,3.23
2019-03-18T09:22:23.938Z,3.50
2019-03-18T09:24:56.012Z,3.47
2019-03-18T09:27:34.035Z,3.33
2019-03-18T09:30:28.904Z,3.07
2019-03-18T09:32:59.173Z,3.33
2019-03-18T09:35:28.444Z,3.20
2019-03-18T09:38:06.357Z,3.80
2019-03-18T09:40:36.243Z,3.60
2019-03-18T09:43:05.253Z,3.70
2019-03-18T09:45:34.047Z,3.43
2019-03-18T09:48:23.796Z,2.93
2019-03-18T09:50:54.186Z,2.57
2019-03-18T09:53:23.037Z,2.30
2019-03-18T09:55:52.155Z,1.87
2019-03-18T09:58:30.102Z,2.50
2019-03-18T10:00:59.180Z,2.10
2019-03-18T10:03:28.645Z,2.10
2019-03-18T10:06:06.387Z,2.10
2019-03-18T10:08:44.546Z,2.20
2019-03-18T10:11:13.301Z,2.67
2019-03-18T10:13:42.034Z,2.20
2019-03-18T10:16:10.737Z,2.20
2019-03-18T10:18:49.013Z,2.50
2019-03-18T10:21:18.086Z,2.13
2019-03-18T10:23:46.800Z,2.13
2019-03-18T10:26:15.917Z,1.57
2019-03-18T10:28:53.540Z,1.80
2019-03-18T10:31:22.538Z,1.53
2019-03-18T10:33:53.139Z,2.07
2019-03-18T10:36:24.266Z,1.33
2019-03-18T10:39:01.871Z,1.80
2019-03-18T10:41:31.026Z,1.50
2019-03-18T10:44:05.754Z,1.30
2019-03-18T10:46:34.491Z,1.70
2019-03-18T10:49:12.131Z,1.50
2019-03-18T10:51:41.195Z,1.23
2019-03-18T10:54:09.929Z,1.63
2019-03-18T10:56:41.195Z,1.90
2019-03-18T10:59:19.279Z,2.53
2019-03-18T11:01:47.996Z,2.20
2019-03-18T11:04:16.995Z,2.37
2019-03-18T11:06:46.687Z,2.20
2019-03-18T11:09:15.815Z,1.63
2019-03-18T11:11:47.397Z,2.00
2019-03-18T11:14:16.992Z,1.73
2019-03-18T11:16:47.946Z,1.70
2019-03-18T11:19:25.828Z,1.50
2019-03-18T11:21:54.784Z,2.23
2019-03-18T11:24:23.507Z,1.90
2019-03-18T11:26:55.202Z,1.73
2019-03-18T11:29:31.862Z,2.00
2019-03-18T11:32:01.164Z,1.90
2019-03-18T11:34:30.076Z,1.80
2019-03-18T11:36:58.906Z,1.80
2019-03-18T11:39:38.796Z,1.90
2019-03-18T11:42:08.921Z,1.77
2019-03-18T11:44:38.308Z,1.90
2019-03-18T11:47:07.199Z,1.80
2019-03-18T11:49:48.580Z,2.20
2019-03-18T11:52:17.871Z,1.67
2019-03-18T11:54:46.862Z,1.70
2019-03-18T11:57:17.854Z,1.70
2019-03-18T11:59:55.900Z,2.00
2019-03-18T12:02:27.919Z,1.80
2019-03-18T12:04:57.535Z,2.20
2019-03-18T12:07:25.852Z,2.20
2019-03-18T12:10:04.143Z,2.00
2019-03-18T12:12:56.360Z,2.50
2019-03-18T12:15:25.117Z,3.17
2019-03-18T12:17:53.904Z,2.40
2019-03-18T12:23:06.729Z,2.70
2019-03-18T12:25:37.946Z,3.23
2019-03-18T12:28:07.210Z,2.90
2019-03-18T12:33:22.536Z,3.17
2019-03-18T12:35:52.014Z,3.30
2019-03-18T12:38:23.112Z,3.33
2019-03-18T12:43:39.332Z,4.97
2019-03-18T12:46:11.201Z,3.00
2019-03-18T12:48:39.945Z,2.33
2019-03-18T12:51:18.619Z,2.43
2019-03-18T12:53:47.411Z,2.33
2019-03-18T12:56:18.347Z,2.47
2019-03-18T12:58:47.959Z,3.10
2019-03-18T13:01:26.165Z,3.00
2019-03-18T13:03:56.544Z,2.27
2019-03-18T13:06:25.602Z,2.20
2019-03-18T13:08:57.244Z,2.60
2019-03-18T13:11:26.153Z,1.87
2019-03-18T13:13:56.482Z,2.87
2019-03-18T13:16:26.476Z,2.50
2019-03-18T13:18:55.629Z,2.23
2019-03-18T13:21:34.038Z,2.73
2019-03-18T13:26:42.099Z,2.40
2019-03-18T13:29:11.178Z,2.43
2019-03-18T13:31:49.724Z,2.13
2019-03-18T13:34:19.101Z,2.90
2019-03-18T13:36:48.378Z,2.20
2019-03-18T13:39:17.453Z,1.90
2019-03-18T13:41:58.856Z,2.10
2019-03-18T13:44:28.104Z,2.27
2019-03-18T13:46:57.524Z,2.10
2019-03-18T13:49:26.413Z,1.80
2019-03-18T13:52:29.006Z,1.50
2019-03-18T13:54:57.875Z,1.93
2019-03-18T13:57:26.823Z,1.73
2019-03-18T13:59:55.942Z,2.30
2019-03-18T14:02:34.554Z,2.27
2019-03-18T14:05:03.634Z,1.63
2019-03-18T14:07:32.640Z,2.10
2019-03-18T14:10:01.858Z,2.40
2019-03-18T14:12:33.541Z,1.90
2019-03-18T14:16:07.053Z,1.90
2019-03-18T14:18:36.217Z,1.97
2019-03-18T14:21:18.167Z,1.60
2019-03-18T14:23:47.224Z,2.30
2019-03-18T14:26:16.577Z,1.70
2019-03-18T14:28:45.772Z,1.70
2019-03-18T14:31:23.735Z,2.20
2019-03-18T14:33:54.992Z,1.83
2019-03-18T14:36:23.984Z,1.77
2019-03-18T14:38:53.531Z,1.90
2019-03-18T14:41:31.722Z,1.80
2019-03-18T14:44:00.858Z,1.83
2019-03-18T14:46:30.161Z,1.47
2019-03-18T14:48:59.632Z,1.57
2019-03-18T14:51:45.636Z,1.50
2019-03-18T14:54:12.079Z,1.30
2019-03-18T14:56:41.607Z,1.30
2019-03-18T14:59:11.099Z,1.30
2019-03-18T15:04:25.537Z,1.37
2019-03-18T15:06:54.404Z,1.53
2019-03-18T15:09:25.313Z,1.50
2019-03-18T15:12:03.509Z,1.90
2019-03-18T15:14:32.369Z,2.07
2019-03-18T15:17:03.736Z,1.87
2019-03-18T15:19:32.807Z,1.70
2019-03-18T15:22:10.829Z,1.60
2019-03-18T15:27:14.881Z,1.73
2019-03-18T15:29:46.786Z,1.90
2019-03-18T15:32:25.621Z,2.00
2019-03-18T15:34:54.709Z,2.00
2019-03-18T15:37:27.656Z,2.00
2019-03-18T15:39:56.822Z,1.53
2019-03-18T15:42:38.262Z,1.53
2019-03-18T15:45:11.428Z,1.80
2019-03-18T15:47:40.719Z,1.30
2019-03-18T15:50:13.178Z,1.50
2019-03-18T15:52:53.114Z,1.47
2019-03-18T15:55:25.178Z,1.37
2019-03-18T15:57:57.202Z,1.43
2019-03-18T16:00:31.775Z,1.40
2019-03-18T16:03:10.410Z,1.30
2019-03-18T16:05:39.292Z,1.87
2019-03-18T16:08:08.327Z,2.23
2019-03-18T16:10:40.244Z,1.60
2019-03-18T16:13:23.529Z,1.27
2019-03-18T16:16:02.533Z,1.00
2019-03-18T16:18:31.419Z,1.00
2019-03-18T16:21:08.039Z,0.77
2019-03-18T16:23:37.352Z,0.70
2019-03-18T16:26:08.972Z,0.80
2019-03-18T16:28:41.124Z,0.60
2019-03-18T16:31:09.886Z,0.90
2019-03-18T16:33:50.936Z,1.03
2019-03-18T16:36:23.044Z,0.83
2019-03-18T16:38:53.371Z,1.20
2019-03-18T16:41:33.584Z,1.30
2019-03-18T16:44:10.076Z,1.10
2019-03-18T16:46:39.463Z,1.07
2019-03-18T16:49:11.277Z,1.17
2019-03-18T16:51:40.448Z,1.07
2019-03-18T16:54:18.553Z,1.00
2019-03-18T16:56:49.291Z,1.77
2019-03-18T16:59:18.802Z,1.70
2019-03-18T17:01:48.432Z,1.60
2019-03-18T17:04:26.814Z,1.93
2019-03-18T17:06:55.855Z,2.10
2019-03-18T17:09:24.879Z,2.13
2019-03-18T17:11:56.701Z,2.20
2019-03-18T17:14:34.760Z,2.43
2019-03-18T17:17:03.452Z,2.17
2019-03-18T17:19:38.032Z,2.03
2019-03-18T17:22:07.767Z,2.20
2019-03-18T17:24:49.057Z,2.13
2019-03-18T17:27:18.316Z,2.03
2019-03-18T17:29:47.262Z,1.60
2019-03-18T17:32:16.160Z,1.60
2019-03-18T17:37:37.059Z,2.30
2019-03-18T17:40:06.697Z,1.80
2019-03-18T17:42:35.393Z,5.70
2019-03-18T17:45:04.388Z,4.20
2019-03-18T17:47:33.333Z,2.47
2019-03-18T17:50:02.646Z,3.63
2019-03-18T17:52:32.767Z,2.70
2019-03-18T17:55:09.190Z,2.70
2019-03-18T17:57:38.664Z,2.67
